sensor_id;sensor_type;location;lat;lon;timestamp;pressure;altitude;pressure_sealevel;temperature;humidity
66880;BME280;53789;51.392;10.234;2023-02-11T00:00:19;99836.97;;;1.87;74.95
66880;BME280;53789;51.392;10.234;2023-02-11T00:00:41;99835.09;;;1.87;74.39
66880;BME280;53789;51.392;10.234;2023-02-11T00:01:37;99838.66;;;1.88;73.74
66880;BME280;53789;51.392;10.234;2023-02-11T00:01:58;99835.94;;;1.88;75.22
66880;BME280;53789;51.392;10.234;2023-02-11T00:02:18;99835.09;;;1.87;74.70
66880;BME280;53789;51.392;10.234;2023-02-11T00:02:38;99828.00;;;1.86;74.94
66880;BME280;53789;51.392;10.234;2023-02-11T00:02:59;99826.13;;;1.87;74.49
66880;BME280;53789;51.392;10.234;2023-02-11T00:03:19;99826.94;;;1.87;74.53
66880;BME280;53789;51.392;10.234;2023-02-11T00:03:39;99830.53;;;1.88;74.81
66880;BME280;53789;51.392;10.234;2023-02-11T00:04:01;99821.53;;;1.87;75.02
66880;BME280;53789;51.392;10.234;2023-02-11T00:04:21;99822.38;;;1.88;74.81
66880;BME280;53789;51.392;10.234;2023-02-11T00:04:42;99820.69;;;1.87;74.72
66880;BME280;53789;51.392;10.234;2023-02-11T00:05:02;99822.59;;;1.86;74.39
66880;BME280;53789;51.392;10.234;2023-02-11T00:05:23;99819.03;;;1.86;74.63
66880;BME280;53789;51.392;10.234;2023-02-11T00:05:43;99813.81;;;1.84;74.28
66880;BME280;53789;51.392;10.234;2023-02-11T00:06:06;99820.09;;;1.85;74.29
66880;BME280;53789;51.392;10.234;2023-02-11T00:06:28;99814.66;;;1.85;75.35
66880;BME280;53789;51.392;10.234;2023-02-11T00:06:49;99813.59;;;1.86;74.51
66880;BME280;53789;51.392;10.234;2023-02-11T00:07:09;99816.53;;;1.84;74.63
66880;BME280;53789;51.392;10.234;2023-02-11T00:07:31;99819.03;;;1.86;74.62
66880;BME280;53789;51.392;10.234;2023-02-11T00:07:52;99812.78;;;1.85;74.35
66880;BME280;53789;51.392;10.234;2023-02-11T00:08:12;99813.59;;;1.86;74.50
66880;BME280;53789;51.392;10.234;2023-02-11T00:08:33;99812.97;;;1.84;74.63
66880;BME280;53789;51.392;10.234;2023-02-11T00:08:54;99807.56;;;1.84;75.61
66880;BME280;53789;51.392;10.234;2023-02-11T00:09:14;99807.56;;;1.84;74.61
66880;BME280;53789;51.392;10.234;2023-02-11T00:09:36;99798.81;;;1.81;74.88
66880;BME280;53789;51.392;10.234;2023-02-11T00:09:56;99802.34;;;1.82;75.33
66880;BME280;53789;51.392;10.234;2023-02-11T00:10:16;99800.66;;;1.81;76.02
66880;BME280;53789;51.392;10.234;2023-02-11T00:10:37;99804.22;;;1.81;75.00
66880;BME280;53789;51.392;10.234;2023-02-11T00:10:57;99799.03;;;1.80;75.07
66880;BME280;53789;51.392;10.234;2023-02-11T00:11:20;99801.53;;;1.81;75.34
66880;BME280;53789;51.392;10.234;2023-02-11T00:11:41;99802.56;;;1.80;75.02
66880;BME280;53789;51.392;10.234;2023-02-11T00:12:01;99798.81;;;1.81;75.28
66880;BME280;53789;51.392;10.234;2023-02-11T00:12:21;99803.16;;;1.83;75.70
66880;BME280;53789;51.392;10.234;2023-02-11T00:12:42;99806.09;;;1.81;76.04
66880;BME280;53789;51.392;10.234;2023-02-11T00:13:02;99794.41;;;1.80;74.98
66880;BME280;53789;51.392;10.234;2023-02-11T00:13:23;99798.81;;;1.81;75.72
66880;BME280;53789;51.392;10.234;2023-02-11T00:13:45;99806.09;;;1.81;75.87
66880;BME280;53789;51.392;10.234;2023-02-11T00:14:06;99800.66;;;1.81;75.72
66880;BME280;53789;51.392;10.234;2023-02-11T00:14:26;99801.72;;;1.80;75.57
66880;BME280;53789;51.392;10.234;2023-02-11T00:14:47;99794.41;;;1.80;75.54
66880;BME280;53789;51.392;10.234;2023-02-11T00:15:08;99797.94;;;1.81;75.91
66880;BME280;53789;51.392;10.234;2023-02-11T00:15:29;99796.91;;;1.82;75.71
66880;BME280;53789;51.392;10.234;2023-02-11T00:15:49;99800.66;;;1.81;75.23
66880;BME280;53789;51.392;10.234;2023-02-11T00:16:15;99792.53;;;1.81;75.45
66880;BME280;53789;51.392;10.234;2023-02-11T00:16:36;99790.88;;;1.80;75.23
66880;BME280;53789;51.392;10.234;2023-02-11T00:16:56;99793.38;;;1.81;75.68
66880;BME280;53789;51.392;10.234;2023-02-11T00:17:17;99792.53;;;1.81;75.83
66880;BME280;53789;51.392;10.234;2023-02-11T00:17:37;99787.09;;;1.81;76.21
66880;BME280;53789;51.392;10.234;2023-02-11T00:17:57;99789.81;;;1.81;75.90
66880;BME280;53789;51.392;10.234;2023-02-11T00:18:18;99794.19;;;1.82;76.23
66880;BME280;53789;51.392;10.234;2023-02-11T00:18:38;99790.66;;;1.81;76.39
66880;BME280;53789;51.392;10.234;2023-02-11T00:19:00;99799.41;;;1.84;76.28
66880;BME280;53789;51.392;10.234;2023-02-11T00:19:20;99789.81;;;1.81;76.46
66880;BME280;53789;51.392;10.234;2023-02-11T00:19:41;99782.53;;;1.81;76.50
66880;BME280;53789;51.392;10.234;2023-02-11T00:20:01;99793.16;;;1.83;76.06
66880;BME280;53789;51.392;10.234;2023-02-11T00:20:22;99787.97;;;1.81;76.52
66880;BME280;53789;51.392;10.234;2023-02-11T00:20:42;99796.91;;;1.82;76.25
66880;BME280;53789;51.392;10.234;2023-02-11T00:21:23;99786.88;;;1.83;76.17
66880;BME280;53789;51.392;10.234;2023-02-11T00:21:44;99792.09;;;1.84;75.97
66880;BME280;53789;51.392;10.234;2023-02-11T00:22:04;99793.16;;;1.83;76.66
66880;BME280;53789;51.392;10.234;2023-02-11T00:22:25;99792.09;;;1.84;76.66
66880;BME280;53789;51.392;10.234;2023-02-11T00:22:45;99802.94;;;1.84;76.08
66880;BME280;53789;51.392;10.234;2023-02-11T00:23:06;99792.94;;;1.85;76.84
66880;BME280;53789;51.392;10.234;2023-02-11T00:23:26;99801.31;;;1.83;76.55
66880;BME280;53789;51.392;10.234;2023-02-11T00:23:47;99797.53;;;1.84;76.42
66880;BME280;53789;51.392;10.234;2023-02-11T00:24:07;99800.03;;;1.86;76.32
66880;BME280;53789;51.392;10.234;2023-02-11T00:24:27;99788.34;;;1.85;76.64
66880;BME280;53789;51.392;10.234;2023-02-11T00:24:48;99799.19;;;1.85;75.94
66880;BME280;53789;51.392;10.234;2023-02-11T00:25:08;99793.78;;;1.85;76.26
66880;BME280;53789;51.392;10.234;2023-02-11T00:25:28;99791.06;;;1.85;76.71
66880;BME280;53789;51.392;10.234;2023-02-11T00:25:49;99791.06;;;1.85;76.86
66880;BME280;53789;51.392;10.234;2023-02-11T00:26:38;99791.88;;;1.86;76.23
66880;BME280;53789;51.392;10.234;2023-02-11T00:26:59;99790.84;;;1.87;76.57
66880;BME280;53789;51.392;10.234;2023-02-11T00:27:19;99792.75;;;1.86;75.88
66880;BME280;53789;51.392;10.234;2023-02-11T00:27:39;99790.84;;;1.87;76.29
66880;BME280;53789;51.392;10.234;2023-02-11T00:28:00;99792.53;;;1.88;76.65
66880;BME280;53789;51.392;10.234;2023-02-11T00:28:20;99793.34;;;1.88;76.10
66880;BME280;53789;51.392;10.234;2023-02-11T00:28:40;99794.38;;;1.87;76.65
66880;BME280;53789;51.392;10.234;2023-02-11T00:29:02;99787.09;;;1.88;76.50
66880;BME280;53789;51.392;10.234;2023-02-11T00:29:23;99787.09;;;1.88;75.81
66880;BME280;53789;51.392;10.234;2023-02-11T00:29:43;99784.38;;;1.88;75.66
66880;BME280;53789;51.392;10.234;2023-02-11T00:30:04;99776.25;;;1.88;75.89
66880;BME280;53789;51.392;10.234;2023-02-11T00:30:24;99788.78;;;1.89;75.91
66880;BME280;53789;51.392;10.234;2023-02-11T00:30:53;99786.88;;;1.89;76.22
66880;BME280;53789;51.392;10.234;2023-02-11T00:31:15;99785.84;;;1.90;75.94
66880;BME280;53789;51.392;10.234;2023-02-11T00:31:36;99783.97;;;1.91;75.98
66880;BME280;53789;51.392;10.234;2023-02-11T00:31:56;99787.50;;;1.91;76.19
66880;BME280;53789;51.392;10.234;2023-02-11T00:32:16;99782.72;;;1.93;75.60
66880;BME280;53789;51.392;10.234;2023-02-11T00:32:37;99777.28;;;1.93;75.46
66880;BME280;53789;51.392;10.234;2023-02-11T00:32:57;99780.00;;;1.93;76.25
66880;BME280;53789;51.392;10.234;2023-02-11T00:33:17;99777.28;;;1.93;76.51
66880;BME280;53789;51.392;10.234;2023-02-11T00:33:37;99778.94;;;1.94;75.68
66880;BME280;53789;51.392;10.234;2023-02-11T00:33:58;99768.94;;;1.95;75.67
66880;BME280;53789;51.392;10.234;2023-02-11T00:34:18;99780.59;;;1.95;76.46
66880;BME280;53789;51.392;10.234;2023-02-11T00:34:38;99773.06;;;1.97;76.15
66880;BME280;53789;51.392;10.234;2023-02-11T00:34:59;99770.38;;;1.97;75.33
66880;BME280;53789;51.392;10.234;2023-02-11T00:35:19;99775.78;;;1.97;76.35
66880;BME280;53789;51.392;10.234;2023-02-11T00:35:39;99769.31;;;1.98;76.46
66880;BME280;53789;51.392;10.234;2023-02-11T00:36:04;99772.88;;;1.99;76.17
66880;BME280;53789;51.392;10.234;2023-02-11T00:36:27;99773.72;;;1.99;76.36
66880;BME280;53789;51.392;10.234;2023-02-11T00:36:48;99768.28;;;1.99;76.48
66880;BME280;53789;51.392;10.234;2023-02-11T00:37:08;99772.69;;;2.01;76.08
66880;BME280;53789;51.392;10.234;2023-02-11T00:37:28;99762.66;;;2.01;76.24
66880;BME280;53789;51.392;10.234;2023-02-11T00:37:48;99774.31;;;2.02;76.45
66880;BME280;53789;51.392;10.234;2023-02-11T00:38:09;99768.91;;;2.02;76.72
66880;BME280;53789;51.392;10.234;2023-02-11T00:38:29;99768.91;;;2.02;76.72
66880;BME280;53789;51.392;10.234;2023-02-11T00:38:51;99765.97;;;2.03;76.90
66880;BME280;53789;51.392;10.234;2023-02-11T00:39:12;99762.44;;;2.03;75.71
66880;BME280;53789;51.392;10.234;2023-02-11T00:39:32;99771.19;;;2.05;76.00
66880;BME280;53789;51.392;10.234;2023-02-11T00:39:52;99769.53;;;2.04;76.34
66880;BME280;53789;51.392;10.234;2023-02-11T00:40:13;99763.25;;;2.03;76.01
66880;BME280;53789;51.392;10.234;2023-02-11T00:40:34;99764.09;;;2.04;75.57
66880;BME280;53789;51.392;10.234;2023-02-11T00:40:54;99759.50;;;2.04;75.90
66880;BME280;53789;51.392;10.234;2023-02-11T00:41:15;99764.94;;;2.04;76.31
66880;BME280;53789;51.392;10.234;2023-02-11T00:41:36;99766.59;;;2.05;76.05
66880;BME280;53789;51.392;10.234;2023-02-11T00:41:57;99767.44;;;2.06;75.76
66880;BME280;53789;51.392;10.234;2023-02-11T00:42:17;99762.81;;;2.06;76.56
66880;BME280;53789;51.392;10.234;2023-02-11T00:42:38;99770.97;;;2.06;76.14
66880;BME280;53789;51.392;10.234;2023-02-11T00:42:58;99769.09;;;2.07;76.04
66880;BME280;53789;51.392;10.234;2023-02-11T00:43:18;99764.50;;;2.07;76.17
66880;BME280;53789;51.392;10.234;2023-02-11T00:43:39;99766.41;;;2.07;76.33
66880;BME280;53789;51.392;10.234;2023-02-11T00:44:01;99765.31;;;2.08;77.02
66880;BME280;53789;51.392;10.234;2023-02-11T00:44:21;99773.03;;;2.11;76.48
66880;BME280;53789;51.392;10.234;2023-02-11T00:44:42;99773.03;;;2.11;76.43
66880;BME280;53789;51.392;10.234;2023-02-11T00:45:02;99768.47;;;2.11;76.54
66880;BME280;53789;51.392;10.234;2023-02-11T00:45:23;99766.56;;;2.12;75.89
66880;BME280;53789;51.392;10.234;2023-02-11T00:45:43;99767.22;;;2.14;76.77
66880;BME280;53789;51.392;10.234;2023-02-11T00:46:04;99766.56;;;2.12;76.45
66880;BME280;53789;51.392;10.234;2023-02-11T00:46:25;99769.06;;;2.13;76.23
66880;BME280;53789;51.392;10.234;2023-02-11T00:46:45;99766.34;;;2.13;76.14
66880;BME280;53789;51.392;10.234;2023-02-11T00:47:05;99762.81;;;2.13;76.87
66880;BME280;53789;51.392;10.234;2023-02-11T00:47:26;99764.50;;;2.14;76.75
66880;BME280;53789;51.392;10.234;2023-02-11T00:47:46;99762.81;;;2.13;76.84
66880;BME280;53789;51.392;10.234;2023-02-11T00:48:07;99763.63;;;2.13;77.30
66880;BME280;53789;51.392;10.234;2023-02-11T00:48:27;99770.97;;;2.13;77.02
66880;BME280;53789;51.392;10.234;2023-02-11T00:48:47;99766.13;;;2.15;76.42
66880;BME280;53789;51.392;10.234;2023-02-11T00:49:08;99765.31;;;2.14;77.44
66880;BME280;53789;51.392;10.234;2023-02-11T00:49:28;99764.50;;;2.14;77.00
66880;BME280;53789;51.392;10.234;2023-02-11T00:49:48;99763.44;;;2.15;76.64
66880;BME280;53789;51.392;10.234;2023-02-11T00:50:09;99764.50;;;2.14;77.43
66880;BME280;53789;51.392;10.234;2023-02-11T00:50:29;99763.03;;;2.11;76.76
66880;BME280;53789;51.392;10.234;2023-02-11T00:50:49;99763.63;;;2.13;76.57
66880;BME280;53789;51.392;10.234;2023-02-11T00:51:10;99763.03;;;2.11;77.58
66880;BME280;53789;51.392;10.234;2023-02-11T00:51:31;99757.59;;;2.11;77.21
66880;BME280;53789;51.392;10.234;2023-02-11T00:51:51;99759.47;;;2.11;77.32
66880;BME280;53789;51.392;10.234;2023-02-11T00:52:11;99761.34;;;2.10;77.80
66880;BME280;53789;51.392;10.234;2023-02-11T00:52:32;99760.31;;;2.11;77.17
66880;BME280;53789;51.392;10.234;2023-02-11T00:52:52;99751.31;;;2.11;78.24
66880;BME280;53789;51.392;10.234;2023-02-11T00:53:12;99751.75;;;2.08;77.65
66880;BME280;53789;51.392;10.234;2023-02-11T00:53:33;99756.16;;;2.09;77.65
66880;BME280;53789;51.392;10.234;2023-02-11T00:53:54;99746.09;;;2.09;77.81
66880;BME280;53789;51.392;10.234;2023-02-11T00:54:14;99754.03;;;2.11;77.70
66880;BME280;53789;51.392;10.234;2023-02-11T00:54:34;99749.69;;;2.10;78.45
66880;BME280;53789;51.392;10.234;2023-02-11T00:54:55;99746.97;;;2.10;77.77
66880;BME280;53789;51.392;10.234;2023-02-11T00:55:15;99750.28;;;2.12;77.68
66880;BME280;53789;51.392;10.234;2023-02-11T00:55:35;99748.59;;;2.11;78.51
66880;BME280;53789;51.392;10.234;2023-02-11T00:55:56;99745.72;;;2.12;78.38
66880;BME280;53789;51.392;10.234;2023-02-11T00:56:16;99744.63;;;2.13;77.70
66880;BME280;53789;51.392;10.234;2023-02-11T00:56:37;99743.81;;;2.13;77.40
66880;BME280;53789;51.392;10.234;2023-02-11T00:56:57;99733.78;;;2.13;78.06
66880;BME280;53789;51.392;10.234;2023-02-11T00:57:17;99741.94;;;2.13;77.65
66880;BME280;53789;51.392;10.234;2023-02-11T00:57:37;99748.22;;;2.14;77.74
66880;BME280;53789;51.392;10.234;2023-02-11T00:57:58;99744.41;;;2.15;77.48
66880;BME280;53789;51.392;10.234;2023-02-11T00:58:18;99736.50;;;2.13;77.23
66880;BME280;53789;51.392;10.234;2023-02-11T00:58:38;99742.34;;;2.17;77.70
66880;BME280;53789;51.392;10.234;2023-02-11T00:58:59;99745.06;;;2.17;77.92
66880;BME280;53789;51.392;10.234;2023-02-11T00:59:19;99743.16;;;2.17;77.70
66880;BME280;53789;51.392;10.234;2023-02-11T00:59:39;99743.16;;;2.17;78.22
66880;BME280;53789;51.392;10.234;2023-02-11T00:59:59;99736.91;;;2.17;77.53
66880;BME280;53789;51.392;10.234;2023-02-11T01:00:20;99731.50;;;2.17;76.91
66880;BME280;53789;51.392;10.234;2023-02-11T01:00:40;99735.03;;;2.17;77.30
66880;BME280;53789;51.392;10.234;2023-02-11T01:01:01;99728.78;;;2.17;77.33
66880;BME280;53789;51.392;10.234;2023-02-11T01:01:22;99732.91;;;2.20;77.98
66880;BME280;53789;51.392;10.234;2023-02-11T01:01:43;99728.56;;;2.19;77.96
66880;BME280;53789;51.392;10.234;2023-02-11T01:02:03;99729.38;;;2.19;77.59
66880;BME280;53789;51.392;10.234;2023-02-11T01:02:23;99729.38;;;2.19;77.17
66880;BME280;53789;51.392;10.234;2023-02-11T01:02:43;99732.91;;;2.20;77.89
66880;BME280;53789;51.392;10.234;2023-02-11T01:03:04;99732.91;;;2.20;77.17
66880;BME280;53789;51.392;10.234;2023-02-11T01:03:24;99735.41;;;2.21;77.64
66880;BME280;53789;51.392;10.234;2023-02-11T01:03:45;99737.31;;;2.21;77.31
66880;BME280;53789;51.392;10.234;2023-02-11T01:04:06;99736.47;;;2.20;77.45
66880;BME280;53789;51.392;10.234;2023-02-11T01:04:26;99736.47;;;2.20;78.05
66880;BME280;53789;51.392;10.234;2023-02-11T01:04:46;99736.47;;;2.20;77.36
66880;BME280;53789;51.392;10.234;2023-02-11T01:05:07;99738.97;;;2.22;77.69
66880;BME280;53789;51.392;10.234;2023-02-11T01:05:27;99738.97;;;2.22;77.32
66880;BME280;53789;51.392;10.234;2023-02-11T01:05:47;99735.19;;;2.23;77.71
66880;BME280;53789;51.392;10.234;2023-02-11T01:06:08;99743.34;;;2.23;77.78
66880;BME280;53789;51.392;10.234;2023-02-11T01:06:29;99737.31;;;2.21;77.66
66880;BME280;53789;51.392;10.234;2023-02-11T01:06:49;99744.41;;;2.22;77.73
66880;BME280;53789;51.392;10.234;2023-02-11T01:07:10;99740.63;;;2.23;77.91
66880;BME280;53789;51.392;10.234;2023-02-11T01:07:30;99742.53;;;2.22;77.94
66880;BME280;53789;51.392;10.234;2023-02-11T01:07:50;99749.00;;;2.21;77.80
66880;BME280;53789;51.392;10.234;2023-02-11T01:08:11;99747.13;;;2.22;77.69
66880;BME280;53789;51.392;10.234;2023-02-11T01:08:31;99753.38;;;2.22;77.22
66880;BME280;53789;51.392;10.234;2023-02-11T01:08:51;99755.28;;;2.22;77.93
66880;BME280;53789;51.392;10.234;2023-02-11T01:09:12;99757.78;;;2.23;77.32
66880;BME280;53789;51.392;10.234;2023-02-11T01:09:32;99757.78;;;2.23;77.96
66880;BME280;53789;51.392;10.234;2023-02-11T01:09:53;99763.19;;;2.23;76.89
66880;BME280;53789;51.392;10.234;2023-02-11T01:10:13;99765.91;;;2.23;77.27
66880;BME280;53789;51.392;10.234;2023-02-11T01:10:33;99763.19;;;2.23;76.81
66880;BME280;53789;51.392;10.234;2023-02-11T01:10:59;99760.50;;;2.23;76.98
66880;BME280;53789;51.392;10.234;2023-02-11T01:11:20;99759.44;;;2.24;77.96
66880;BME280;53789;51.392;10.234;2023-02-11T01:11:41;99758.59;;;2.24;77.57
66880;BME280;53789;51.392;10.234;2023-02-11T01:12:01;99758.59;;;2.24;77.55
66880;BME280;53789;51.392;10.234;2023-02-11T01:12:22;99764.88;;;2.24;77.61
66880;BME280;53789;51.392;10.234;2023-02-11T01:12:42;99760.50;;;2.23;77.25
66880;BME280;53789;51.392;10.234;2023-02-11T01:13:03;99764.88;;;2.24;77.00
66880;BME280;53789;51.392;10.234;2023-02-11T01:13:24;99770.31;;;2.24;77.42
66880;BME280;53789;51.392;10.234;2023-02-11T01:13:47;99762.16;;;2.24;77.54
66880;BME280;53789;51.392;10.234;2023-02-11T01:14:08;99768.41;;;2.25;77.25
66880;BME280;53789;51.392;10.234;2023-02-11T01:14:28;99771.94;;;2.25;76.95
66880;BME280;53789;51.392;10.234;2023-02-11T01:14:49;99770.91;;;2.26;76.93
66880;BME280;53789;51.392;10.234;2023-02-11T01:15:13;99772.81;;;2.26;77.66
66880;BME280;53789;51.392;10.234;2023-02-11T01:15:34;99773.63;;;2.26;77.47
66880;BME280;53789;51.392;10.234;2023-02-11T01:15:55;99786.38;;;2.26;77.69
66880;BME280;53789;51.392;10.234;2023-02-11T01:16:16;99784.50;;;2.26;76.88
66880;BME280;53789;51.392;10.234;2023-02-11T01:16:38;99783.66;;;2.26;77.55
66880;BME280;53789;51.392;10.234;2023-02-11T01:16:58;99786.16;;;2.27;76.97
66880;BME280;53789;51.392;10.234;2023-02-11T01:17:19;99791.59;;;2.27;77.67
66880;BME280;53789;51.392;10.234;2023-02-11T01:17:40;99783.44;;;2.27;77.08
66880;BME280;53789;51.392;10.234;2023-02-11T01:18:00;99786.16;;;2.27;76.68
66880;BME280;53789;51.392;10.234;2023-02-11T01:18:21;99784.28;;;2.28;77.68
66880;BME280;53789;51.392;10.234;2023-02-11T01:18:42;99775.91;;;2.29;76.98
66880;BME280;53789;51.392;10.234;2023-02-11T01:19:02;99773.19;;;2.29;77.21
66880;BME280;53789;51.392;10.234;2023-02-11T01:19:23;99784.88;;;2.30;77.51
66880;BME280;53789;51.392;10.234;2023-02-11T01:19:43;99785.75;;;2.30;77.32
66880;BME280;53789;51.392;10.234;2023-02-11T01:20:06;99787.38;;;2.31;77.78
66880;BME280;53789;51.392;10.234;2023-02-11T01:20:27;99780.31;;;2.30;77.34
66880;BME280;53789;51.392;10.234;2023-02-11T01:20:50;99788.25;;;2.32;76.91
66880;BME280;53789;51.392;10.234;2023-02-11T01:21:10;99788.25;;;2.32;77.54
66880;BME280;53789;51.392;10.234;2023-02-11T01:21:31;99787.16;;;2.33;77.52
66880;BME280;53789;51.392;10.234;2023-02-11T01:21:51;99787.16;;;2.33;77.49
66880;BME280;53789;51.392;10.234;2023-02-11T01:22:11;99788.63;;;2.36;77.47
66880;BME280;53789;51.392;10.234;2023-02-11T01:22:32;99776.94;;;2.35;77.43
66880;BME280;53789;51.392;10.234;2023-02-11T01:22:53;99780.47;;;2.36;77.11
66880;BME280;53789;51.392;10.234;2023-02-11T01:23:13;99772.13;;;2.37;76.73
66880;BME280;53789;51.392;10.234;2023-02-11T01:23:33;99774.84;;;2.37;77.33
66880;BME280;53789;51.392;10.234;2023-02-11T01:23:54;99777.34;;;2.39;76.69
66880;BME280;53789;51.392;10.234;2023-02-11T01:24:14;99767.53;;;2.38;77.25
66880;BME280;53789;51.392;10.234;2023-02-11T01:24:35;99777.13;;;2.40;76.90
66880;BME280;53789;51.392;10.234;2023-02-11T01:24:55;99775.47;;;2.39;76.57
66880;BME280;53789;51.392;10.234;2023-02-11T01:25:16;99773.56;;;2.40;76.62
66880;BME280;53789;51.392;10.234;2023-02-11T01:25:36;99776.28;;;2.40;76.52
66880;BME280;53789;51.392;10.234;2023-02-11T01:25:56;99773.38;;;2.41;76.58
66880;BME280;53789;51.392;10.234;2023-02-11T01:26:17;99779.63;;;2.42;76.52
66880;BME280;53789;51.392;10.234;2023-02-11T01:26:38;99776.06;;;2.41;76.60
66880;BME280;53789;51.392;10.234;2023-02-11T01:26:58;99776.06;;;2.41;77.23
66880;BME280;53789;51.392;10.234;2023-02-11T01:27:18;99775.84;;;2.43;76.80
66880;BME280;53789;51.392;10.234;2023-02-11T01:27:39;99773.38;;;2.41;76.93
66880;BME280;53789;51.392;10.234;2023-02-11T01:27:59;99775.25;;;2.41;76.86
66880;BME280;53789;51.392;10.234;2023-02-11T01:28:23;99776.06;;;2.41;76.70
66880;BME280;53789;51.392;10.234;2023-02-11T01:28:44;99779.63;;;2.42;77.03
66880;BME280;53789;51.392;10.234;2023-02-11T01:29:05;99771.69;;;2.40;76.39
66880;BME280;53789;51.392;10.234;2023-02-11T01:29:25;99776.91;;;2.42;76.26
66880;BME280;53789;51.392;10.234;2023-02-11T01:29:45;99771.47;;;2.42;76.68
66880;BME280;53789;51.392;10.234;2023-02-11T01:30:08;99772.31;;;2.42;76.33
66880;BME280;53789;51.392;10.234;2023-02-11T01:30:28;99767.94;;;2.41;76.78
66880;BME280;53789;51.392;10.234;2023-02-11T01:30:49;99773.16;;;2.43;76.52
66880;BME280;53789;51.392;10.234;2023-02-11T01:31:09;99771.25;;;2.43;76.53
66880;BME280;53789;51.392;10.234;2023-02-11T01:31:30;99760.59;;;2.42;76.81
66880;BME280;53789;51.392;10.234;2023-02-11T01:31:50;99769.38;;;2.44;76.24
66880;BME280;53789;51.392;10.234;2023-02-11T01:32:10;99768.53;;;2.43;76.83
66880;BME280;53789;51.392;10.234;2023-02-11T01:32:31;99770.22;;;2.44;76.21
66880;BME280;53789;51.392;10.234;2023-02-11T01:32:51;99766.66;;;2.44;76.23
66880;BME280;53789;51.392;10.234;2023-02-11T01:33:12;99763.97;;;2.44;76.70
66880;BME280;53789;51.392;10.234;2023-02-11T01:33:32;99763.97;;;2.44;76.64
66880;BME280;53789;51.392;10.234;2023-02-11T01:33:53;99760.16;;;2.45;76.52
66880;BME280;53789;51.392;10.234;2023-02-11T01:34:13;99758.53;;;2.44;76.45
66880;BME280;53789;51.392;10.234;2023-02-11T01:34:33;99765.59;;;2.45;76.42
66880;BME280;53789;51.392;10.234;2023-02-11T01:34:54;99767.28;;;2.46;76.71
66880;BME280;53789;51.392;10.234;2023-02-11T01:35:14;99771.03;;;2.45;75.67
66880;BME280;53789;51.392;10.234;2023-02-11T01:35:36;99765.38;;;2.46;76.49
66880;BME280;53789;51.392;10.234;2023-02-11T01:36:01;99777.09;;;2.47;76.05
66880;BME280;53789;51.392;10.234;2023-02-11T01:36:22;99772.72;;;2.46;75.67
66880;BME280;53789;51.392;10.234;2023-02-11T01:36:42;99771.66;;;2.47;75.58
66880;BME280;53789;51.392;10.234;2023-02-11T01:37:03;99762.66;;;2.46;75.71
66880;BME280;53789;51.392;10.234;2023-02-11T01:37:23;99766.25;;;2.47;75.85
66880;BME280;53789;51.392;10.234;2023-02-11T01:37:43;99765.19;;;2.48;75.50
66880;BME280;53789;51.392;10.234;2023-02-11T01:38:05;99761.84;;;2.46;75.84
66880;BME280;53789;51.392;10.234;2023-02-11T01:38:26;99761.63;;;2.47;75.79
66880;BME280;53789;51.392;10.234;2023-02-11T01:38:46;99758.09;;;2.47;75.82
66880;BME280;53789;51.392;10.234;2023-02-11T01:39:07;99760.81;;;2.47;75.67
66880;BME280;53789;51.392;10.234;2023-02-11T01:39:27;99764.34;;;2.47;75.58
66880;BME280;53789;51.392;10.234;2023-02-11T01:39:48;99759.75;;;2.48;75.23
66880;BME280;53789;51.392;10.234;2023-02-11T01:40:15;99761.41;;;2.49;75.58
66880;BME280;53789;51.392;10.234;2023-02-11T01:40:36;99764.13;;;2.49;75.85
66880;BME280;53789;51.392;10.234;2023-02-11T01:41:02;99766.84;;;2.49;75.93
66880;BME280;53789;51.392;10.234;2023-02-11T01:41:23;99760.59;;;2.48;75.62
66880;BME280;53789;51.392;10.234;2023-02-11T01:41:43;99760.81;;;2.47;75.68
66880;BME280;53789;51.392;10.234;2023-02-11T01:42:03;99772.28;;;2.49;75.46
66880;BME280;53789;51.392;10.234;2023-02-11T01:42:24;99766.03;;;2.48;75.81
66880;BME280;53789;51.392;10.234;2023-02-11T01:42:44;99757.06;;;2.48;75.67
66880;BME280;53789;51.392;10.234;2023-02-11T01:43:05;99767.06;;;2.47;76.02
66880;BME280;53789;51.392;10.234;2023-02-11T01:43:27;99760.16;;;2.45;75.73
66880;BME280;53789;51.392;10.234;2023-02-11T01:43:49;99765.38;;;2.46;75.94
66880;BME280;53789;51.392;10.234;2023-02-11T01:44:35;99769.78;;;2.47;75.42
66880;BME280;53789;51.392;10.234;2023-02-11T01:44:56;99767.50;;;2.44;75.24
66880;BME280;53789;51.392;10.234;2023-02-11T01:46:19;99772.94;;;2.44;76.10
66880;BME280;53789;51.392;10.234;2023-02-11T01:46:40;99766.66;;;2.44;76.11
66880;BME280;53789;51.392;10.234;2023-02-11T01:47:01;99771.25;;;2.43;75.82
66880;BME280;53789;51.392;10.234;2023-02-11T01:47:21;99774.81;;;2.44;75.97
66880;BME280;53789;51.392;10.234;2023-02-11T01:47:42;99764.78;;;2.44;75.34
66880;BME280;53789;51.392;10.234;2023-02-11T01:48:02;99768.53;;;2.43;75.53
66880;BME280;53789;51.392;10.234;2023-02-11T01:48:35;99767.72;;;2.43;76.21
66880;BME280;53789;51.392;10.234;2023-02-11T01:49:03;99769.59;;;2.42;75.32
66880;BME280;53789;51.392;10.234;2023-02-11T01:49:31;99766.88;;;2.42;76.12
66880;BME280;53789;51.392;10.234;2023-02-11T01:49:56;99757.06;;;2.41;75.38
66880;BME280;53789;51.392;10.234;2023-02-11T01:50:18;99765.22;;;2.41;75.49
66880;BME280;53789;51.392;10.234;2023-02-11T01:50:41;99761.47;;;2.42;75.26
66880;BME280;53789;51.392;10.234;2023-02-11T01:51:08;99766.03;;;2.42;75.87
66880;BME280;53789;51.392;10.234;2023-02-11T01:52:38;99762.72;;;2.40;75.45
66880;BME280;53789;51.392;10.234;2023-02-11T01:52:59;99760.00;;;2.40;75.61
66880;BME280;53789;51.392;10.234;2023-02-11T01:53:21;99756.47;;;2.39;75.88
66880;BME280;53789;51.392;10.234;2023-02-11T01:53:43;99758.31;;;2.39;75.74
66880;BME280;53789;51.392;10.234;2023-02-11T01:54:06;99759.19;;;2.39;76.09
66880;BME280;53789;51.392;10.234;2023-02-11T01:54:40;99755.59;;;2.39;76.37
66880;BME280;53789;51.392;10.234;2023-02-11T01:55:09;99756.03;;;2.36;76.18